sensor_id;sensor_type;location;lat;lon;timestamp;P1;durP1;ratioP1;P2;durP2;ratioP2
19754;SDS011;10036;47.812;9.274;2023-11-19T00:00:49;2.92;;;2.63;;
19754;SDS011;10036;47.812;9.274;2023-11-19T00:03:16;4.13;;;2.78;;
19754;SDS011;10036;47.812;9.274;2023-11-19T00:05:43;3.25;;;2.85;;
19754;SDS011;10036;47.812;9.274;2023-11-19T00:08:10;3.30;;;2.50;;
19754;SDS011;10036;47.812;9.274;2023-11-19T00:10:37;2.70;;;2.40;;
19754;SDS011;10036;47.812;9.274;2023-11-19T00:13:04;2.90;;;2.53;;
19754;SDS011;10036;47.812;9.274;2023-11-19T00:15:33;3.70;;;2.95;;
19754;SDS011;10036;47.812;9.274;2023-11-19T00:18:00;2.90;;;2.70;;
19754;SDS011;10036;47.812;9.274;2023-11-19T00:20:29;3.03;;;2.70;;
19754;SDS011;10036;47.812;9.274;2023-11-19T00:22:56;4.10;;;2.80;;
19754;SDS011;10036;47.812;9.274;2023-11-19T00:25:23;3.85;;;2.63;;
19754;SDS011;10036;47.812;9.274;2023-11-19T00:27:51;3.40;;;3.10;;
19754;SDS011;10036;47.812;9.274;2023-11-19T00:30:18;4.22;;;2.40;;
19754;SDS011;10036;47.812;9.274;2023-11-19T00:32:47;2.97;;;2.78;;
19754;SDS011;10036;47.812;9.274;2023-11-19T00:35:13;3.33;;;2.88;;
19754;SDS011;10036;47.812;9.274;2023-11-19T00:40:29;4.60;;;2.85;;
19754;SDS011;10036;47.812;9.274;2023-11-19T00:42:57;5.75;;;3.15;;
19754;SDS011;10036;47.812;9.274;2023-11-19T00:48:47;3.58;;;3.10;;
19754;SDS011;10036;47.812;9.274;2023-11-19T00:51:14;3.42;;;3.13;;
19754;SDS011;10036;47.812;9.274;2023-11-19T00:53:41;5.22;;;3.38;;
19754;SDS011;10036;47.812;9.274;2023-11-19T00:56:08;3.67;;;3.38;;
19754;SDS011;10036;47.812;9.274;2023-11-19T00:58:37;3.58;;;3.28;;
19754;SDS011;10036;47.812;9.274;2023-11-19T01:01:04;6.80;;;3.67;;
19754;SDS011;10036;47.812;9.274;2023-11-19T01:03:31;4.47;;;3.30;;
19754;SDS011;10036;47.812;9.274;2023-11-19T01:05:59;4.30;;;3.40;;
19754;SDS011;10036;47.812;9.274;2023-11-19T01:08:27;3.70;;;3.22;;
19754;SDS011;10036;47.812;9.274;2023-11-19T01:10:54;4.63;;;3.47;;
19754;SDS011;10036;47.812;9.274;2023-11-19T01:13:21;5.63;;;3.28;;
19754;SDS011;10036;47.812;9.274;2023-11-19T01:15:48;4.35;;;3.58;;
19754;SDS011;10036;47.812;9.274;2023-11-19T01:18:15;3.80;;;3.40;;
19754;SDS011;10036;47.812;9.274;2023-11-19T01:20:42;4.78;;;3.30;;
19754;SDS011;10036;47.812;9.274;2023-11-19T01:23:11;4.43;;;3.33;;
19754;SDS011;10036;47.812;9.274;2023-11-19T01:25:37;4.68;;;3.72;;
19754;SDS011;10036;47.812;9.274;2023-11-19T01:28:04;3.92;;;3.53;;
19754;SDS011;10036;47.812;9.274;2023-11-19T01:30:31;4.10;;;3.70;;
19754;SDS011;10036;47.812;9.274;2023-11-19T01:32:58;4.68;;;3.53;;
19754;SDS011;10036;47.812;9.274;2023-11-19T01:35:25;4.07;;;3.67;;
19754;SDS011;10036;47.812;9.274;2023-11-19T01:37:52;4.00;;;3.50;;
19754;SDS011;10036;47.812;9.274;2023-11-19T01:40:21;4.15;;;3.75;;
19754;SDS011;10036;47.812;9.274;2023-11-19T01:42:48;6.65;;;4.20;;
19754;SDS011;10036;47.812;9.274;2023-11-19T01:45:20;4.65;;;4.15;;
19754;SDS011;10036;47.812;9.274;2023-11-19T01:47:53;5.97;;;4.22;;
19754;SDS011;10036;47.812;9.274;2023-11-19T01:50:20;5.15;;;4.00;;
19754;SDS011;10036;47.812;9.274;2023-11-19T01:52:49;4.28;;;3.60;;
19754;SDS011;10036;47.812;9.274;2023-11-19T01:55:17;4.53;;;3.95;;
19754;SDS011;10036;47.812;9.274;2023-11-19T02:04:01;5.95;;;3.63;;
19754;SDS011;10036;47.812;9.274;2023-11-19T02:06:29;5.25;;;4.05;;
19754;SDS011;10036;47.812;9.274;2023-11-19T02:08:57;5.03;;;3.80;;
19754;SDS011;10036;47.812;9.274;2023-11-19T02:11:25;6.72;;;3.97;;
19754;SDS011;10036;47.812;9.274;2023-11-19T02:13:54;4.28;;;3.88;;
19754;SDS011;10036;47.812;9.274;2023-11-19T02:16:21;6.13;;;3.72;;
19754;SDS011;10036;47.812;9.274;2023-11-19T02:18:49;4.95;;;3.60;;
19754;SDS011;10036;47.812;9.274;2023-11-19T02:21:16;4.60;;;3.78;;
19754;SDS011;10036;47.812;9.274;2023-11-19T02:23:43;3.67;;;3.38;;
19754;SDS011;10036;47.812;9.274;2023-11-19T02:26:12;5.22;;;3.95;;
19754;SDS011;10036;47.812;9.274;2023-11-19T02:28:45;4.10;;;3.70;;
19754;SDS011;10036;47.812;9.274;2023-11-19T02:31:13;5.65;;;3.45;;
19754;SDS011;10036;47.812;9.274;2023-11-19T02:33:40;4.15;;;3.70;;
19754;SDS011;10036;47.812;9.274;2023-11-19T02:36:07;3.90;;;3.55;;
19754;SDS011;10036;47.812;9.274;2023-11-19T02:38:35;4.38;;;3.97;;
19754;SDS011;10036;47.812;9.274;2023-11-19T02:41:03;4.18;;;3.78;;
19754;SDS011;10036;47.812;9.274;2023-11-19T02:43:31;3.88;;;3.58;;
19754;SDS011;10036;47.812;9.274;2023-11-19T02:46:01;4.20;;;3.78;;
19754;SDS011;10036;47.812;9.274;2023-11-19T02:48:31;3.63;;;3.22;;
19754;SDS011;10036;47.812;9.274;2023-11-19T02:51:00;3.40;;;3.10;;
19754;SDS011;10036;47.812;9.274;2023-11-19T02:53:28;3.90;;;3.17;;
19754;SDS011;10036;47.812;9.274;2023-11-19T02:55:55;4.13;;;3.33;;
19754;SDS011;10036;47.812;9.274;2023-11-19T02:58:26;3.60;;;3.30;;
19754;SDS011;10036;47.812;9.274;2023-11-19T03:00:54;3.28;;;2.88;;
19754;SDS011;10036;47.812;9.274;2023-11-19T03:03:26;3.88;;;2.95;;
19754;SDS011;10036;47.812;9.274;2023-11-19T03:06:03;3.47;;;3.17;;
19754;SDS011;10036;47.812;9.274;2023-11-19T03:08:31;4.28;;;3.28;;
19754;SDS011;10036;47.812;9.274;2023-11-19T03:10:57;3.80;;;3.20;;
19754;SDS011;10036;47.812;9.274;2023-11-19T03:13:25;3.08;;;2.78;;
19754;SDS011;10036;47.812;9.274;2023-11-19T03:15:52;3.20;;;2.90;;
19754;SDS011;10036;47.812;9.274;2023-11-19T03:18:20;3.30;;;3.00;;
19754;SDS011;10036;47.812;9.274;2023-11-19T03:20:48;3.17;;;2.97;;
19754;SDS011;10036;47.812;9.274;2023-11-19T03:23:15;4.32;;;3.05;;
19754;SDS011;10036;47.812;9.274;2023-11-19T03:25:42;2.67;;;2.47;;
19754;SDS011;10036;47.812;9.274;2023-11-19T03:28:09;3.03;;;2.72;;
19754;SDS011;10036;47.812;9.274;2023-11-19T03:30:37;3.90;;;3.35;;
19754;SDS011;10036;47.812;9.274;2023-11-19T03:33:04;4.07;;;3.15;;
19754;SDS011;10036;47.812;9.274;2023-11-19T03:35:31;3.38;;;2.90;;
19754;SDS011;10036;47.812;9.274;2023-11-19T03:38:00;3.05;;;2.80;;
19754;SDS011;10036;47.812;9.274;2023-11-19T03:40:27;2.67;;;2.45;;
19754;SDS011;10036;47.812;9.274;2023-11-19T03:42:55;2.85;;;2.65;;
19754;SDS011;10036;47.812;9.274;2023-11-19T03:45:22;3.05;;;2.85;;
19754;SDS011;10036;47.812;9.274;2023-11-19T03:47:49;3.30;;;2.97;;
19754;SDS011;10036;47.812;9.274;2023-11-19T03:50:17;3.22;;;2.83;;
19754;SDS011;10036;47.812;9.274;2023-11-19T03:52:45;3.72;;;3.00;;
19754;SDS011;10036;47.812;9.274;2023-11-19T03:55:13;3.10;;;2.90;;
19754;SDS011;10036;47.812;9.274;2023-11-19T03:57:40;3.63;;;3.10;;
19754;SDS011;10036;47.812;9.274;2023-11-19T04:00:07;4.03;;;3.20;;
19754;SDS011;10036;47.812;9.274;2023-11-19T04:02:35;2.78;;;2.58;;
19754;SDS011;10036;47.812;9.274;2023-11-19T04:05:02;3.05;;;2.75;;
19754;SDS011;10036;47.812;9.274;2023-11-19T04:07:30;3.22;;;2.90;;
19754;SDS011;10036;47.812;9.274;2023-11-19T04:09:57;3.05;;;2.50;;
19754;SDS011;10036;47.812;9.274;2023-11-19T04:12:25;2.92;;;2.60;;
19754;SDS011;10036;47.812;9.274;2023-11-19T04:14:52;3.35;;;3.00;;
19754;SDS011;10036;47.812;9.274;2023-11-19T04:17:19;3.45;;;2.35;;
19754;SDS011;10036;47.812;9.274;2023-11-19T04:19:46;2.95;;;2.70;;
19754;SDS011;10036;47.812;9.274;2023-11-19T04:22:13;3.30;;;2.80;;
19754;SDS011;10036;47.812;9.274;2023-11-19T04:24:40;2.88;;;2.58;;
19754;SDS011;10036;47.812;9.274;2023-11-19T04:27:09;17.43;;;8.13;;
19754;SDS011;10036;47.812;9.274;2023-11-19T04:29:37;11.68;;;5.47;;
19754;SDS011;10036;47.812;9.274;2023-11-19T04:32:04;5.82;;;4.38;;
19754;SDS011;10036;47.812;9.274;2023-11-19T04:34:32;8.10;;;3.83;;
19754;SDS011;10036;47.812;9.274;2023-11-19T04:36:59;4.60;;;3.42;;
19754;SDS011;10036;47.812;9.274;2023-11-19T04:39:28;3.08;;;2.78;;
19754;SDS011;10036;47.812;9.274;2023-11-19T04:41:55;3.38;;;2.88;;
19754;SDS011;10036;47.812;9.274;2023-11-19T04:44:22;5.03;;;2.60;;
19754;SDS011;10036;47.812;9.274;2023-11-19T04:46:50;3.40;;;3.10;;
19754;SDS011;10036;47.812;9.274;2023-11-19T04:49:17;3.20;;;2.90;;
19754;SDS011;10036;47.812;9.274;2023-11-19T04:51:44;3.45;;;3.00;;
19754;SDS011;10036;47.812;9.274;2023-11-19T04:54:13;3.90;;;3.03;;
19754;SDS011;10036;47.812;9.274;2023-11-19T04:56:40;3.38;;;2.80;;
19754;SDS011;10036;47.812;9.274;2023-11-19T04:59:11;3.30;;;3.00;;
19754;SDS011;10036;47.812;9.274;2023-11-19T05:01:37;3.10;;;2.80;;
19754;SDS011;10036;47.812;9.274;2023-11-19T05:04:06;3.15;;;2.85;;
19754;SDS011;10036;47.812;9.274;2023-11-19T05:06:34;3.92;;;2.63;;
19754;SDS011;10036;47.812;9.274;2023-11-19T05:09:01;3.28;;;2.90;;
19754;SDS011;10036;47.812;9.274;2023-11-19T05:11:29;3.28;;;2.97;;
19754;SDS011;10036;47.812;9.274;2023-11-19T05:13:56;3.53;;;2.85;;
19754;SDS011;10036;47.812;9.274;2023-11-19T05:16:23;3.38;;;2.90;;
19754;SDS011;10036;47.812;9.274;2023-11-19T05:18:50;3.28;;;2.75;;
19754;SDS011;10036;47.812;9.274;2023-11-19T05:21:20;3.20;;;2.90;;
19754;SDS011;10036;47.812;9.274;2023-11-19T05:23:47;3.75;;;3.45;;
19754;SDS011;10036;47.812;9.274;2023-11-19T05:26:17;5.15;;;3.50;;
19754;SDS011;10036;47.812;9.274;2023-11-19T05:28:45;3.92;;;3.53;;
19754;SDS011;10036;47.812;9.274;2023-11-19T05:31:12;4.15;;;3.65;;
19754;SDS011;10036;47.812;9.274;2023-11-19T05:33:39;4.75;;;4.15;;
19754;SDS011;10036;47.812;9.274;2023-11-19T05:36:06;4.32;;;3.80;;
19754;SDS011;10036;47.812;9.274;2023-11-19T05:38:35;3.75;;;3.35;;
19754;SDS011;10036;47.812;9.274;2023-11-19T05:41:03;4.68;;;3.40;;
19754;SDS011;10036;47.812;9.274;2023-11-19T05:43:30;3.20;;;2.95;;
19754;SDS011;10036;47.812;9.274;2023-11-19T05:45:57;3.97;;;3.60;;
19754;SDS011;10036;47.812;9.274;2023-11-19T05:48:25;4.05;;;3.55;;
19754;SDS011;10036;47.812;9.274;2023-11-19T05:50:52;5.13;;;3.90;;
19754;SDS011;10036;47.812;9.274;2023-11-19T05:53:20;3.95;;;3.33;;
19754;SDS011;10036;47.812;9.274;2023-11-19T05:55:48;4.28;;;3.78;;
19754;SDS011;10036;47.812;9.274;2023-11-19T05:58:20;4.63;;;3.58;;
19754;SDS011;10036;47.812;9.274;2023-11-19T06:00:50;4.82;;;3.88;;
19754;SDS011;10036;47.812;9.274;2023-11-19T06:03:17;4.28;;;3.88;;
19754;SDS011;10036;47.812;9.274;2023-11-19T06:05:44;4.78;;;4.20;;
19754;SDS011;10036;47.812;9.274;2023-11-19T06:08:11;3.50;;;3.20;;
19754;SDS011;10036;47.812;9.274;2023-11-19T06:10:39;15.77;;;8.80;;
19754;SDS011;10036;47.812;9.274;2023-11-19T06:13:08;15.00;;;8.77;;
19754;SDS011;10036;47.812;9.274;2023-11-19T06:15:36;8.32;;;6.05;;
19754;SDS011;10036;47.812;9.274;2023-11-19T06:18:03;7.00;;;4.97;;
19754;SDS011;10036;47.812;9.274;2023-11-19T06:20:30;6.30;;;4.72;;
19754;SDS011;10036;47.812;9.274;2023-11-19T06:22:58;5.15;;;4.30;;
19754;SDS011;10036;47.812;9.274;2023-11-19T06:25:26;4.45;;;4.03;;
19754;SDS011;10036;47.812;9.274;2023-11-19T06:30:59;5.03;;;4.50;;
19754;SDS011;10036;47.812;9.274;2023-11-19T06:33:26;6.55;;;4.10;;
19754;SDS011;10036;47.812;9.274;2023-11-19T06:35:53;5.63;;;4.65;;
19754;SDS011;10036;47.812;9.274;2023-11-19T06:38:20;4.60;;;4.07;;
19754;SDS011;10036;47.812;9.274;2023-11-19T06:40:47;4.63;;;4.10;;
19754;SDS011;10036;47.812;9.274;2023-11-19T06:43:14;3.97;;;3.53;;
19754;SDS011;10036;47.812;9.274;2023-11-19T06:45:41;4.63;;;4.07;;
19754;SDS011;10036;47.812;9.274;2023-11-19T06:48:09;4.45;;;4.03;;
19754;SDS011;10036;47.812;9.274;2023-11-19T06:50:36;4.60;;;3.60;;
19754;SDS011;10036;47.812;9.274;2023-11-19T06:53:03;4.80;;;4.25;;
19754;SDS011;10036;47.812;9.274;2023-11-19T06:55:31;5.93;;;4.63;;
19754;SDS011;10036;47.812;9.274;2023-11-19T06:57:59;6.18;;;5.22;;
19754;SDS011;10036;47.812;9.274;2023-11-19T07:00:27;8.85;;;6.68;;
19754;SDS011;10036;47.812;9.274;2023-11-19T07:02:54;6.55;;;5.18;;
19754;SDS011;10036;47.812;9.274;2023-11-19T07:05:22;7.72;;;5.93;;
19754;SDS011;10036;47.812;9.274;2023-11-19T07:07:50;13.38;;;8.80;;
19754;SDS011;10036;47.812;9.274;2023-11-19T07:10:16;14.43;;;9.02;;
19754;SDS011;10036;47.812;9.274;2023-11-19T07:12:44;11.27;;;8.50;;
19754;SDS011;10036;47.812;9.274;2023-11-19T07:15:11;7.90;;;5.63;;
19754;SDS011;10036;47.812;9.274;2023-11-19T07:21:03;8.70;;;6.55;;
19754;SDS011;10036;47.812;9.274;2023-11-19T07:23:31;8.90;;;6.68;;
19754;SDS011;10036;47.812;9.274;2023-11-19T07:25:58;8.40;;;6.15;;
19754;SDS011;10036;47.812;9.274;2023-11-19T07:28:25;7.82;;;6.95;;
19754;SDS011;10036;47.812;9.274;2023-11-19T07:30:53;7.07;;;5.97;;
19754;SDS011;10036;47.812;9.274;2023-11-19T07:33:21;5.38;;;4.88;;
19754;SDS011;10036;47.812;9.274;2023-11-19T07:35:48;4.72;;;4.32;;
19754;SDS011;10036;47.812;9.274;2023-11-19T07:38:17;3.92;;;3.63;;
19754;SDS011;10036;47.812;9.274;2023-11-19T07:40:44;3.97;;;3.22;;
19754;SDS011;10036;47.812;9.274;2023-11-19T07:43:12;3.45;;;3.15;;
19754;SDS011;10036;47.812;9.274;2023-11-19T07:45:39;5.55;;;3.38;;
19754;SDS011;10036;47.812;9.274;2023-11-19T07:48:11;3.17;;;2.88;;
19754;SDS011;10036;47.812;9.274;2023-11-19T07:50:39;5.38;;;3.20;;
19754;SDS011;10036;47.812;9.274;2023-11-19T07:53:06;4.20;;;3.25;;
19754;SDS011;10036;47.812;9.274;2023-11-19T07:55:35;3.90;;;3.05;;
19754;SDS011;10036;47.812;9.274;2023-11-19T07:58:02;3.35;;;3.03;;
19754;SDS011;10036;47.812;9.274;2023-11-19T08:00:29;4.53;;;3.08;;
19754;SDS011;10036;47.812;9.274;2023-11-19T08:02:56;3.42;;;3.13;;
19754;SDS011;10036;47.812;9.274;2023-11-19T08:05:23;3.15;;;2.83;;
19754;SDS011;10036;47.812;9.274;2023-11-19T08:07:50;6.13;;;3.70;;
19754;SDS011;10036;47.812;9.274;2023-11-19T08:10:18;11.45;;;5.93;;
19754;SDS011;10036;47.812;9.274;2023-11-19T08:12:46;9.80;;;5.40;;
19754;SDS011;10036;47.812;9.274;2023-11-19T08:15:13;8.07;;;4.32;;
19754;SDS011;10036;47.812;9.274;2023-11-19T08:17:40;4.72;;;3.70;;
19754;SDS011;10036;47.812;9.274;2023-11-19T08:20:08;7.28;;;4.78;;
19754;SDS011;10036;47.812;9.274;2023-11-19T08:22:36;4.65;;;4.20;;
19754;SDS011;10036;47.812;9.274;2023-11-19T08:25:03;4.38;;;3.92;;
19754;SDS011;10036;47.812;9.274;2023-11-19T08:27:30;3.50;;;3.20;;
19754;SDS011;10036;47.812;9.274;2023-11-19T08:29:59;3.20;;;2.90;;
19754;SDS011;10036;47.812;9.274;2023-11-19T08:32:26;3.30;;;3.00;;
19754;SDS011;10036;47.812;9.274;2023-11-19T08:34:54;3.58;;;3.10;;
19754;SDS011;10036;47.812;9.274;2023-11-19T08:37:21;3.75;;;2.60;;
19754;SDS011;10036;47.812;9.274;2023-11-19T08:39:48;3.22;;;2.55;;
19754;SDS011;10036;47.812;9.274;2023-11-19T08:42:15;3.22;;;2.42;;
19754;SDS011;10036;47.812;9.274;2023-11-19T08:44:42;2.20;;;2.10;;
19754;SDS011;10036;47.812;9.274;2023-11-19T08:47:13;2.88;;;2.53;;
19754;SDS011;10036;47.812;9.274;2023-11-19T08:49:41;3.17;;;2.88;;
19754;SDS011;10036;47.812;9.274;2023-11-19T08:52:08;48.38;;;21.63;;
19754;SDS011;10036;47.812;9.274;2023-11-19T08:54:35;59.60;;;33.15;;
19754;SDS011;10036;47.812;9.274;2023-11-19T08:57:02;33.33;;;20.25;;
19754;SDS011;10036;47.812;9.274;2023-11-19T08:59:29;18.83;;;12.57;;
19754;SDS011;10036;47.812;9.274;2023-11-19T09:01:56;11.05;;;7.05;;
19754;SDS011;10036;47.812;9.274;2023-11-19T09:04:24;4.03;;;3.13;;
19754;SDS011;10036;47.812;9.274;2023-11-19T09:06:51;3.85;;;2.80;;
19754;SDS011;10036;47.812;9.274;2023-11-19T09:09:18;11.38;;;7.03;;
19754;SDS011;10036;47.812;9.274;2023-11-19T09:11:45;17.55;;;10.55;;
19754;SDS011;10036;47.812;9.274;2023-11-19T09:14:12;13.95;;;9.05;;
19754;SDS011;10036;47.812;9.274;2023-11-19T09:20:03;3.00;;;2.47;;
19754;SDS011;10036;47.812;9.274;2023-11-19T09:22:30;2.50;;;2.25;;
19754;SDS011;10036;47.812;9.274;2023-11-19T09:24:57;2.97;;;2.65;;
19754;SDS011;10036;47.812;9.274;2023-11-19T09:27:25;5.47;;;4.53;;
19754;SDS011;10036;47.812;9.274;2023-11-19T09:29:52;5.03;;;4.18;;
19754;SDS011;10036;47.812;9.274;2023-11-19T09:32:22;3.47;;;2.40;;
19754;SDS011;10036;47.812;9.274;2023-11-19T09:34:49;2.00;;;1.90;;
19754;SDS011;10036;47.812;9.274;2023-11-19T09:37:18;2.63;;;1.48;;
19754;SDS011;10036;47.812;9.274;2023-11-19T09:39:45;3.13;;;1.40;;
19754;SDS011;10036;47.812;9.274;2023-11-19T09:42:12;1.63;;;1.52;;
19754;SDS011;10036;47.812;9.274;2023-11-19T09:44:39;1.70;;;1.60;;
19754;SDS011;10036;47.812;9.274;2023-11-19T09:47:08;1.50;;;1.40;;
19754;SDS011;10036;47.812;9.274;2023-11-19T09:49:38;2.55;;;1.60;;
19754;SDS011;10036;47.812;9.274;2023-11-19T09:52:05;2.58;;;1.10;;
19754;SDS011;10036;47.812;9.274;2023-11-19T09:54:34;1.42;;;1.17;;
19754;SDS011;10036;47.812;9.274;2023-11-19T09:57:01;1.27;;;1.20;;
19754;SDS011;10036;47.812;9.274;2023-11-19T09:59:29;1.13;;;1.13;;
19754;SDS011;10036;47.812;9.274;2023-11-19T10:01:57;1.20;;;1.20;;
19754;SDS011;10036;47.812;9.274;2023-11-19T10:04:23;1.17;;;1.17;;
19754;SDS011;10036;47.812;9.274;2023-11-19T10:06:55;1.20;;;1.20;;
19754;SDS011;10036;47.812;9.274;2023-11-19T10:09:22;1.00;;;1.00;;
19754;SDS011;10036;47.812;9.274;2023-11-19T10:11:50;1.77;;;1.00;;
19754;SDS011;10036;47.812;9.274;2023-11-19T10:14:17;1.23;;;1.10;;
19754;SDS011;10036;47.812;9.274;2023-11-19T10:16:49;1.15;;;0.93;;
19754;SDS011;10036;47.812;9.274;2023-11-19T10:19:18;1.90;;;1.30;;
19754;SDS011;10036;47.812;9.274;2023-11-19T10:21:46;1.27;;;1.27;;
19754;SDS011;10036;47.812;9.274;2023-11-19T10:24:13;1.10;;;1.10;;
19754;SDS011;10036;47.812;9.274;2023-11-19T10:26:40;1.80;;;1.02;;
19754;SDS011;10036;47.812;9.274;2023-11-19T10:29:09;0.93;;;0.93;;
19754;SDS011;10036;47.812;9.274;2023-11-19T10:31:39;1.42;;;1.00;;
19754;SDS011;10036;47.812;9.274;2023-11-19T10:34:11;1.00;;;1.00;;
19754;SDS011;10036;47.812;9.274;2023-11-19T10:36:51;1.13;;;1.10;;
19754;SDS011;10036;47.812;9.274;2023-11-19T10:39:18;1.02;;;1.02;;
19754;SDS011;10036;47.812;9.274;2023-11-19T10:41:46;0.80;;;0.80;;
19754;SDS011;10036;47.812;9.274;2023-11-19T10:44:24;3.65;;;0.88;;
19754;SDS011;10036;47.812;9.274;2023-11-19T10:46:58;0.90;;;0.90;;
19754;SDS011;10036;47.812;9.274;2023-11-19T10:49:25;0.95;;;0.95;;
19754;SDS011;10036;47.812;9.274;2023-11-19T10:51:52;2.50;;;1.73;;
19754;SDS011;10036;47.812;9.274;2023-11-19T10:54:21;1.08;;;1.00;;
19754;SDS011;10036;47.812;9.274;2023-11-19T10:56:49;1.02;;;1.02;;
19754;SDS011;10036;47.812;9.274;2023-11-19T10:59:21;1.05;;;1.00;;
19754;SDS011;10036;47.812;9.274;2023-11-19T11:01:50;1.13;;;1.00;;
19754;SDS011;10036;47.812;9.274;2023-11-19T11:04:22;1.00;;;1.00;;
19754;SDS011;10036;47.812;9.274;2023-11-19T11:06:50;0.90;;;0.90;;
19754;SDS011;10036;47.812;9.274;2023-11-19T11:09:20;4.35;;;0.90;;
19754;SDS011;10036;47.812;9.274;2023-11-19T11:11:48;1.10;;;1.00;;
19754;SDS011;10036;47.812;9.274;2023-11-19T11:14:18;1.33;;;1.10;;
19754;SDS011;10036;47.812;9.274;2023-11-19T11:16:48;1.00;;;1.00;;
19754;SDS011;10036;47.812;9.274;2023-11-19T11:19:17;0.85;;;0.85;;
19754;SDS011;10036;47.812;9.274;2023-11-19T11:21:45;1.75;;;0.90;;
19754;SDS011;10036;47.812;9.274;2023-11-19T11:24:20;1.27;;;1.17;;
19754;SDS011;10036;47.812;9.274;2023-11-19T11:27:16;1.27;;;1.20;;
19754;SDS011;10036;47.812;9.274;2023-11-19T11:30:08;2.30;;;1.25;;
19754;SDS011;10036;47.812;9.274;2023-11-19T11:32:48;1.38;;;1.00;;
19754;SDS011;10036;47.812;9.274;2023-11-19T11:35:27;1.20;;;1.10;;
19754;SDS011;10036;47.812;9.274;2023-11-19T11:38:03;1.48;;;1.08;;
19754;SDS011;10036;47.812;9.274;2023-11-19T11:40:32;1.08;;;1.08;;
19754;SDS011;10036;47.812;9.274;2023-11-19T11:43:01;1.30;;;1.23;;
19754;SDS011;10036;47.812;9.274;2023-11-19T11:45:38;2.45;;;1.10;;
19754;SDS011;10036;47.812;9.274;2023-11-19T11:48:12;1.10;;;1.00;;
19754;SDS011;10036;47.812;9.274;2023-11-19T11:50:48;1.05;;;1.05;;
19754;SDS011;10036;47.812;9.274;2023-11-19T11:53:17;1.02;;;1.00;;
19754;SDS011;10036;47.812;9.274;2023-11-19T11:58:34;1.33;;;1.23;;
19754;SDS011;10036;47.812;9.274;2023-11-19T12:01:03;1.25;;;1.20;;
19754;SDS011;10036;47.812;9.274;2023-11-19T12:03:37;1.30;;;1.17;;
19754;SDS011;10036;47.812;9.274;2023-11-19T12:06:04;2.17;;;1.60;;
19754;SDS011;10036;47.812;9.274;2023-11-19T12:08:33;1.13;;;1.13;;
19754;SDS011;10036;47.812;9.274;2023-11-19T12:11:01;1.30;;;1.20;;
19754;SDS011;10036;47.812;9.274;2023-11-19T12:16:27;0.93;;;0.80;;
19754;SDS011;10036;47.812;9.274;2023-11-19T12:18:57;0.88;;;0.88;;
19754;SDS011;10036;47.812;9.274;2023-11-19T12:21:30;1.00;;;1.00;;
19754;SDS011;10036;47.812;9.274;2023-11-19T12:23:58;1.15;;;1.05;;
19754;SDS011;10036;47.812;9.274;2023-11-19T12:26:36;0.75;;;0.75;;
19754;SDS011;10036;47.812;9.274;2023-11-19T12:29:04;0.75;;;0.75;;
19754;SDS011;10036;47.812;9.274;2023-11-19T12:31:32;1.00;;;0.90;;
19754;SDS011;10036;47.812;9.274;2023-11-19T12:34:06;0.90;;;0.90;;
19754;SDS011;10036;47.812;9.274;2023-11-19T12:36:38;1.08;;;1.00;;
19754;SDS011;10036;47.812;9.274;2023-11-19T12:39:06;0.80;;;0.80;;
19754;SDS011;10036;47.812;9.274;2023-11-19T12:41:48;1.08;;;1.08;;
19754;SDS011;10036;47.812;9.274;2023-11-19T12:44:19;1.08;;;0.98;;
19754;SDS011;10036;47.812;9.274;2023-11-19T12:46:46;0.80;;;0.80;;
19754;SDS011;10036;47.812;9.274;2023-11-19T12:49:26;1.05;;;1.05;;
19754;SDS011;10036;47.812;9.274;2023-11-19T12:51:53;1.38;;;0.93;;
19754;SDS011;10036;47.812;9.274;2023-11-19T12:54:20;1.00;;;1.00;;
19754;SDS011;10036;47.812;9.274;2023-11-19T12:56:57;1.20;;;0.80;;
19754;SDS011;10036;47.812;9.274;2023-11-19T12:59:25;1.80;;;0.90;;
19754;SDS011;10036;47.812;9.274;2023-11-19T13:01:55;1.08;;;1.08;;
19754;SDS011;10036;47.812;9.274;2023-11-19T13:04:22;2.22;;;1.35;;
19754;SDS011;10036;47.812;9.274;2023-11-19T13:06:51;1.48;;;1.38;;
19754;SDS011;10036;47.812;9.274;2023-11-19T13:09:21;1.20;;;1.20;;
19754;SDS011;10036;47.812;9.274;2023-11-19T13:11:50;1.85;;;1.38;;
19754;SDS011;10036;47.812;9.274;2023-11-19T13:14:16;1.65;;;1.55;;
19754;SDS011;10036;47.812;9.274;2023-11-19T13:16:44;2.67;;;1.90;;
19754;SDS011;10036;47.812;9.274;2023-11-19T13:19:11;2.25;;;1.20;;
19754;SDS011;10036;47.812;9.274;2023-11-19T13:21:38;1.25;;;1.15;;
19754;SDS011;10036;47.812;9.274;2023-11-19T13:24:07;2.47;;;1.20;;
19754;SDS011;10036;47.812;9.274;2023-11-19T13:26:34;1.83;;;1.40;;
19754;SDS011;10036;47.812;9.274;2023-11-19T13:29:01;1.77;;;1.40;;
19754;SDS011;10036;47.812;9.274;2023-11-19T13:31:28;1.30;;;1.20;;
19754;SDS011;10036;47.812;9.274;2023-11-19T13:33:55;1.52;;;1.20;;
19754;SDS011;10036;47.812;9.274;2023-11-19T13:36:23;1.58;;;1.10;;
19754;SDS011;10036;47.812;9.274;2023-11-19T13:38:51;2.15;;;1.55;;
19754;SDS011;10036;47.812;9.274;2023-11-19T13:41:25;1.20;;;1.15;;
19754;SDS011;10036;47.812;9.274;2023-11-19T13:43:52;1.10;;;1.10;;
19754;SDS011;10036;47.812;9.274;2023-11-19T13:46:19;1.52;;;1.42;;
19754;SDS011;10036;47.812;9.274;2023-11-19T13:48:46;2.17;;;1.48;;
19754;SDS011;10036;47.812;9.274;2023-11-19T13:51:14;1.77;;;1.33;;
19754;SDS011;10036;47.812;9.274;2023-11-19T13:53:41;1.50;;;1.20;;
19754;SDS011;10036;47.812;9.274;2023-11-19T13:56:09;1.58;;;1.10;;
19754;SDS011;10036;47.812;9.274;2023-11-19T13:58:37;1.15;;;1.10;;
19754;SDS011;10036;47.812;9.274;2023-11-19T14:01:05;1.52;;;1.40;;
19754;SDS011;10036;47.812;9.274;2023-11-19T14:03:33;1.38;;;1.27;;
19754;SDS011;10036;47.812;9.274;2023-11-19T14:06:00;1.40;;;1.30;;
19754;SDS011;10036;47.812;9.274;2023-11-19T14:08:27;1.23;;;1.23;;
19754;SDS011;10036;47.812;9.274;2023-11-19T14:10:54;1.10;;;1.10;;
19754;SDS011;10036;47.812;9.274;2023-11-19T14:13:21;1.40;;;1.30;;
19754;SDS011;10036;47.812;9.274;2023-11-19T14:15:50;1.88;;;1.30;;
19754;SDS011;10036;47.812;9.274;2023-11-19T14:18:17;1.20;;;1.20;;
19754;SDS011;10036;47.812;9.274;2023-11-19T14:20:44;1.00;;;1.00;;
19754;SDS011;10036;47.812;9.274;2023-11-19T14:23:11;5.45;;;1.27;;
19754;SDS011;10036;47.812;9.274;2023-11-19T14:25:38;1.17;;;1.10;;
19754;SDS011;10036;47.812;9.274;2023-11-19T14:28:05;1.25;;;1.00;;
19754;SDS011;10036;47.812;9.274;2023-11-19T14:30:32;1.27;;;1.17;;
19754;SDS011;10036;47.812;9.274;2023-11-19T14:33:01;0.90;;;0.90;;
19754;SDS011;10036;47.812;9.274;2023-11-19T14:35:28;1.00;;;1.00;;
19754;SDS011;10036;47.812;9.274;2023-11-19T14:37:57;3.15;;;1.10;;
19754;SDS011;10036;47.812;9.274;2023-11-19T14:40:24;1.20;;;0.90;;
19754;SDS011;10036;47.812;9.274;2023-11-19T14:42:51;1.05;;;1.00;;
19754;SDS011;10036;47.812;9.274;2023-11-19T14:45:18;1.00;;;0.98;;
19754;SDS011;10036;47.812;9.274;2023-11-19T14:47:45;0.80;;;0.80;;
19754;SDS011;10036;47.812;9.274;2023-11-19T14:50:13;1.00;;;0.90;;
19754;SDS011;10036;47.812;9.274;2023-11-19T14:52:40;0.90;;;0.90;;
19754;SDS011;10036;47.812;9.274;2023-11-19T14:55:08;1.13;;;1.02;;
19754;SDS011;10036;47.812;9.274;2023-11-19T14:57:36;0.90;;;0.90;;
19754;SDS011;10036;47.812;9.274;2023-11-19T15:00:04;0.82;;;0.82;;
19754;SDS011;10036;47.812;9.274;2023-11-19T15:02:38;1.10;;;1.10;;
19754;SDS011;10036;47.812;9.274;2023-11-19T15:05:06;0.95;;;0.95;;
19754;SDS011;10036;47.812;9.274;2023-11-19T15:07:36;1.70;;;1.10;;
19754;SDS011;10036;47.812;9.274;2023-11-19T15:10:03;1.40;;;1.30;;
19754;SDS011;10036;47.812;9.274;2023-11-19T15:12:34;1.83;;;1.30;;
19754;SDS011;10036;47.812;9.274;2023-11-19T15:15:05;2.33;;;1.70;;
19754;SDS011;10036;47.812;9.274;2023-11-19T15:17:33;2.63;;;1.70;;
19754;SDS011;10036;47.812;9.274;2023-11-19T15:20:01;3.13;;;1.92;;
19754;SDS011;10036;47.812;9.274;2023-11-19T15:22:28;1.65;;;1.23;;